createdAt,value
2022-12-08T00:01:15.858Z,59.10
2022-12-08T00:03:43.158Z,59.10
2022-12-08T00:06:51.855Z,59.10
2022-12-08T00:09:23.646Z,59.10
2022-12-08T00:11:52.066Z,59.00
2022-12-08T00:14:19.035Z,58.90
2022-12-08T00:16:45.845Z,59.00
2022-12-08T00:19:12.494Z,59.00
2022-12-08T00:21:39.238Z,59.00
2022-12-08T00:24:06.031Z,59.00
2022-12-08T00:26:32.692Z,58.90
2022-12-08T00:28:59.319Z,58.90
2022-12-08T00:31:26.059Z,59.00
2022-12-08T00:33:52.749Z,59.00
2022-12-08T00:36:19.361Z,58.90
2022-12-08T00:38:48.282Z,58.80
2022-12-08T00:41:18.608Z,58.40
2022-12-08T00:43:45.367Z,58.90
2022-12-08T00:46:12.072Z,58.80
2022-12-08T00:48:39.035Z,58.80
2022-12-08T00:51:05.989Z,58.30
2022-12-08T00:53:32.601Z,58.80
2022-12-08T00:55:59.248Z,58.80
2022-12-08T00:58:26.975Z,58.80
2022-12-08T01:00:53.678Z,58.80
2022-12-08T01:03:20.523Z,58.70
2022-12-08T01:05:47.167Z,58.70
2022-12-08T01:08:13.827Z,58.70
2022-12-08T01:10:40.507Z,58.20
2022-12-08T01:13:07.141Z,58.60
2022-12-08T01:15:33.798Z,58.60
2022-12-08T01:18:00.379Z,58.60
2022-12-08T01:20:26.987Z,58.10
2022-12-08T01:22:53.554Z,58.60
2022-12-08T01:25:20.159Z,58.50
2022-12-08T01:27:46.809Z,58.50
2022-12-08T01:30:13.843Z,58.50
2022-12-08T01:32:40.453Z,58.50
2022-12-08T01:35:07.287Z,58.50
2022-12-08T01:37:33.889Z,58.50
2022-12-08T01:40:00.495Z,58.60
2022-12-08T01:42:27.273Z,58.40
2022-12-08T01:45:00.362Z,58.40
2022-12-08T01:47:33.520Z,58.30
2022-12-08T01:50:00.589Z,58.30
2022-12-08T01:52:33.447Z,58.40
2022-12-08T01:55:06.524Z,58.40
2022-12-08T01:57:47.159Z,58.40
2022-12-08T02:00:17.282Z,58.30
2022-12-08T02:02:58.166Z,58.30
2022-12-08T02:05:32.175Z,58.30
2022-12-08T02:08:01.642Z,58.30
2022-12-08T02:10:30.873Z,58.20
2022-12-08T02:12:59.066Z,58.30
2022-12-08T02:15:49.167Z,58.30
2022-12-08T02:19:14.840Z,58.20
2022-12-08T02:21:39.979Z,57.70
2022-12-08T02:24:54.608Z,58.20
2022-12-08T02:27:28.343Z,58.20
2022-12-08T02:30:06.974Z,58.20
2022-12-08T02:32:55.902Z,58.20
2022-12-08T02:35:43.367Z,58.10
2022-12-08T02:38:23.435Z,58.20
2022-12-08T02:41:08.604Z,58.10
2022-12-08T02:43:47.830Z,58.00
2022-12-08T02:46:21.851Z,58.00
2022-12-08T02:48:51.292Z,58.00
2022-12-08T02:51:18.621Z,57.90
2022-12-08T02:53:46.171Z,58.00
2022-12-08T02:56:31.569Z,58.00
2022-12-08T02:59:35.939Z,57.90
2022-12-08T03:02:20.680Z,57.90
2022-12-08T03:05:05.256Z,57.90
2022-12-08T03:07:45.069Z,57.90
2022-12-08T03:10:13.638Z,57.30
2022-12-08T03:12:55.443Z,57.80
2022-12-08T03:15:22.846Z,57.80
2022-12-08T03:17:54.621Z,57.80
2022-12-08T03:20:24.734Z,57.20
2022-12-08T03:22:55.589Z,59.50
2022-12-08T03:25:25.102Z,57.30
2022-12-08T03:27:53.253Z,57.70
2022-12-08T03:30:20.006Z,57.30
2022-12-08T03:32:55.931Z,57.80
2022-12-08T03:35:29.376Z,57.80
2022-12-08T03:38:11.779Z,57.80
2022-12-08T03:40:39.166Z,57.30
2022-12-08T03:43:05.943Z,58.40
2022-12-08T03:45:32.586Z,57.70
2022-12-08T03:47:59.163Z,57.80
2022-12-08T03:50:26.099Z,57.70
2022-12-08T03:52:52.753Z,57.70
2022-12-08T03:55:21.315Z,57.70
2022-12-08T03:57:47.992Z,57.70
2022-12-08T04:00:15.951Z,57.20
2022-12-08T04:02:44.014Z,57.60
2022-12-08T04:05:10.741Z,57.70
2022-12-08T04:07:37.668Z,57.70
2022-12-08T04:10:05.610Z,57.70
2022-12-08T04:12:32.447Z,57.70
2022-12-08T04:14:59.056Z,57.70
2022-12-08T04:17:25.639Z,57.80
2022-12-08T04:19:52.204Z,57.80
2022-12-08T04:22:18.780Z,57.80
2022-12-08T04:24:45.379Z,57.90
2022-12-08T04:27:11.955Z,57.90
2022-12-08T04:29:38.547Z,57.40
2022-12-08T04:32:05.458Z,57.90
2022-12-08T04:34:32.040Z,57.90
2022-12-08T04:36:58.616Z,57.90
2022-12-08T04:39:25.364Z,57.90
2022-12-08T04:41:51.987Z,57.90
2022-12-08T04:44:18.624Z,58.00
2022-12-08T04:46:46.055Z,58.00
2022-12-08T04:49:12.671Z,58.00
2022-12-08T04:51:39.326Z,58.00
2022-12-08T04:54:06.034Z,58.10
2022-12-08T04:56:32.615Z,58.00
2022-12-08T04:58:59.237Z,58.00
2022-12-08T05:01:25.898Z,57.50
2022-12-08T05:03:52.552Z,57.90
2022-12-08T05:06:19.326Z,58.00
2022-12-08T05:08:45.939Z,58.60
2022-12-08T05:11:13.590Z,58.00
2022-12-08T05:13:40.305Z,58.00
2022-12-08T05:16:12.163Z,58.00
2022-12-08T05:18:39.142Z,58.60
2022-12-08T05:21:06.665Z,58.70
2022-12-08T05:23:34.002Z,58.00
2022-12-08T05:26:00.750Z,58.20
2022-12-08T05:28:43.800Z,58.10
2022-12-08T05:31:13.370Z,58.20
2022-12-08T05:33:40.368Z,58.30
2022-12-08T05:36:08.989Z,58.30
2022-12-08T05:38:35.748Z,58.40
2022-12-08T05:41:02.407Z,58.50
2022-12-08T05:43:29.045Z,58.50
2022-12-08T05:45:56.347Z,58.50
2022-12-08T05:48:23.149Z,58.50
2022-12-08T05:50:50.965Z,58.60
2022-12-08T05:53:19.090Z,58.50
2022-12-08T05:55:46.846Z,58.50
2022-12-08T05:58:16.389Z,58.70
2022-12-08T06:00:43.293Z,58.10
2022-12-08T06:03:12.130Z,58.60
2022-12-08T06:05:40.208Z,58.80
2022-12-08T06:08:07.872Z,59.10
2022-12-08T06:10:34.863Z,58.80
2022-12-08T06:13:01.438Z,58.50
2022-12-08T06:15:28.066Z,59.30
2022-12-08T06:17:54.649Z,58.80
2022-12-08T06:20:21.268Z,58.80
2022-12-08T06:22:47.847Z,58.80
2022-12-08T06:25:14.454Z,59.50
2022-12-08T06:27:41.063Z,58.80
2022-12-08T06:30:08.237Z,58.80
2022-12-08T06:32:35.737Z,58.80
2022-12-08T06:35:02.337Z,58.70
2022-12-08T06:37:28.971Z,58.80
2022-12-08T06:39:57.590Z,58.80
2022-12-08T06:42:42.937Z,58.30
2022-12-08T06:45:10.965Z,58.70
2022-12-08T06:47:37.686Z,58.80
2022-12-08T06:50:06.771Z,58.70
2022-12-08T06:52:34.925Z,58.70
2022-12-08T06:55:04.759Z,58.70
2022-12-08T06:57:31.340Z,58.70
2022-12-08T06:59:57.955Z,58.60
2022-12-08T07:02:24.559Z,58.60
2022-12-08T07:04:51.827Z,58.60
2022-12-08T07:07:18.435Z,58.60
2022-12-08T07:09:47.491Z,58.10
2022-12-08T07:12:14.104Z,58.60
2022-12-08T07:14:40.699Z,58.50
2022-12-08T07:17:07.360Z,58.60
2022-12-08T07:19:36.764Z,58.10
2022-12-08T07:22:03.493Z,58.00
2022-12-08T07:24:30.066Z,58.60
2022-12-08T07:26:56.716Z,58.50
2022-12-08T07:29:26.315Z,58.40
2022-12-08T07:31:53.212Z,58.50
2022-12-08T07:34:19.878Z,58.50
2022-12-08T07:36:46.461Z,58.50
2022-12-08T07:39:13.102Z,58.50
2022-12-08T07:41:39.697Z,58.50
2022-12-08T07:44:06.296Z,58.50
2022-12-08T07:46:32.896Z,58.50
2022-12-08T07:48:59.908Z,58.40
2022-12-08T07:51:26.586Z,58.40
2022-12-08T07:53:54.662Z,58.50
2022-12-08T07:56:22.156Z,58.50
2022-12-08T07:58:48.916Z,58.50
2022-12-08T08:01:28.487Z,58.40
2022-12-08T08:03:57.492Z,58.30
2022-12-08T08:06:24.642Z,58.30
2022-12-08T08:08:51.301Z,57.90
2022-12-08T08:11:21.309Z,57.80
2022-12-08T08:13:49.851Z,58.30
2022-12-08T08:16:17.271Z,58.40
2022-12-08T08:18:46.462Z,58.30
2022-12-08T08:21:43.674Z,58.50
2022-12-08T08:23:59.643Z,58.30
2022-12-08T08:26:26.263Z,58.40
2022-12-08T08:31:24.975Z,57.80
2022-12-08T08:33:51.651Z,58.30
2022-12-08T08:36:18.588Z,58.20
2022-12-08T08:38:45.189Z,58.20
2022-12-08T08:41:11.976Z,58.20
2022-12-08T08:43:39.049Z,58.20
2022-12-08T08:46:06.796Z,58.20
2022-12-08T08:48:33.610Z,58.10
2022-12-08T08:51:08.180Z,58.10
2022-12-08T08:53:35.090Z,58.10
2022-12-08T08:56:03.050Z,58.00
2022-12-08T08:58:29.790Z,58.00
2022-12-08T09:00:56.418Z,58.10
2022-12-08T09:03:23.049Z,58.10
2022-12-08T09:05:50.572Z,58.20
2022-12-08T09:08:17.458Z,58.10
2022-12-08T09:10:44.410Z,58.00
2022-12-08T09:13:11.016Z,58.10
2022-12-08T09:15:37.682Z,58.10
2022-12-08T09:18:06.620Z,58.00
2022-12-08T09:20:34.474Z,57.50
2022-12-08T09:23:01.238Z,57.90
2022-12-08T09:25:28.613Z,58.10
2022-12-08T09:27:55.222Z,58.00
2022-12-08T09:30:21.936Z,58.10
2022-12-08T09:32:48.536Z,58.10
2022-12-08T09:35:15.192Z,58.10
2022-12-08T09:37:41.836Z,58.10
2022-12-08T09:40:11.079Z,58.10
2022-12-08T09:43:02.880Z,58.10
2022-12-08T09:45:34.798Z,58.10
2022-12-08T09:48:11.542Z,58.20
2022-12-08T09:50:44.687Z,57.60
2022-12-08T09:53:35.255Z,58.10
2022-12-08T09:56:09.001Z,58.40
2022-12-08T09:58:51.758Z,58.10
2022-12-08T10:01:20.329Z,58.10
2022-12-08T10:03:47.576Z,58.20
2022-12-08T10:06:33.519Z,58.10
2022-12-08T10:09:32.669Z,58.10
2022-12-08T10:12:08.167Z,58.20
2022-12-08T10:14:49.869Z,58.10
2022-12-08T10:17:27.736Z,58.10
2022-12-08T10:20:00.246Z,58.10
2022-12-08T10:22:33.703Z,58.20
2022-12-08T10:25:11.536Z,58.20
2022-12-08T10:27:38.187Z,58.10
2022-12-08T10:30:15.501Z,57.70
2022-12-08T10:32:45.761Z,58.20
2022-12-08T10:35:14.838Z,58.20
2022-12-08T10:37:41.963Z,58.20
2022-12-08T10:40:08.688Z,58.20
2022-12-08T10:42:45.927Z,58.10
2022-12-08T10:45:29.230Z,58.20
2022-12-08T10:47:57.416Z,58.30
2022-12-08T10:50:45.423Z,57.70
2022-12-08T10:53:15.544Z,58.30
2022-12-08T10:55:47.714Z,58.30
2022-12-08T10:58:33.817Z,58.20
2022-12-08T11:01:15.255Z,58.30
2022-12-08T11:03:49.340Z,58.20
2022-12-08T11:06:21.356Z,58.20
2022-12-08T11:08:54.650Z,58.20
2022-12-08T11:11:29.080Z,57.70
2022-12-08T11:13:56.545Z,58.30
2022-12-08T11:16:23.535Z,58.20
2022-12-08T11:18:56.718Z,58.30
2022-12-08T11:21:35.412Z,58.20
2022-12-08T11:24:16.632Z,58.20
2022-12-08T11:27:02.473Z,58.30
2022-12-08T11:29:32.049Z,58.30
2022-12-08T11:32:12.861Z,58.30
2022-12-08T11:34:48.008Z,58.30
2022-12-08T11:37:29.923Z,58.20
2022-12-08T11:40:06.883Z,58.30
2022-12-08T11:42:55.208Z,58.20
2022-12-08T11:45:27.702Z,58.20
2022-12-08T11:48:15.984Z,58.30
2022-12-08T11:50:49.248Z,58.30
2022-12-08T11:53:36.827Z,58.30
2022-12-08T11:56:31.080Z,58.30
2022-12-08T11:59:01.590Z,58.40
2022-12-08T12:01:28.370Z,58.40
2022-12-08T12:04:37.230Z,58.40
2022-12-08T12:07:35.955Z,58.40
2022-12-08T12:10:25.414Z,58.40
2022-12-08T12:13:18.032Z,58.40
2022-12-08T12:15:59.647Z,58.40
2022-12-08T12:18:38.740Z,58.40
2022-12-08T12:21:11.023Z,58.30
2022-12-08T12:23:48.416Z,58.30
2022-12-08T12:26:22.333Z,58.30
2022-12-08T12:28:52.244Z,58.40
2022-12-08T12:31:27.074Z,58.30
2022-12-08T12:34:05.284Z,58.30
2022-12-08T12:36:32.596Z,58.40
2022-12-08T12:39:00.919Z,58.30
2022-12-08T12:41:43.158Z,58.40
2022-12-08T12:44:12.886Z,58.40
2022-12-08T12:46:45.642Z,58.30
2022-12-08T12:49:40.454Z,58.30
2022-12-08T12:52:10.087Z,57.80
2022-12-08T12:54:41.690Z,58.30
2022-12-08T12:57:11.340Z,58.30
2022-12-08T12:59:55.626Z,57.80
2022-12-08T13:02:33.249Z,58.30
2022-12-08T13:05:15.570Z,58.30
2022-12-08T13:07:56.676Z,58.30
2022-12-08T13:10:38.507Z,57.80
2022-12-08T13:13:17.796Z,58.40
2022-12-08T13:15:47.133Z,58.40
2022-12-08T13:18:37.074Z,58.40
2022-12-08T13:21:08.128Z,57.90
2022-12-08T13:23:37.824Z,58.50
2022-12-08T13:26:20.686Z,58.50
2022-12-08T13:28:59.210Z,58.40
2022-12-08T13:31:50.142Z,58.50
2022-12-08T13:34:29.869Z,58.50
2022-12-08T13:37:19.700Z,58.50
2022-12-08T13:40:00.766Z,58.50
2022-12-08T13:42:36.356Z,58.50
2022-12-08T13:45:33.648Z,58.50
2022-12-08T13:48:55.939Z,58.50
2022-12-08T13:55:00.719Z,58.60
2022-12-08T13:57:14.178Z,58.60
2022-12-08T13:59:45.555Z,58.60
2022-12-08T14:02:21.201Z,58.60
2022-12-08T14:05:40.614Z,58.60
2022-12-08T14:07:35.436Z,58.60
2022-12-08T14:10:03.787Z,58.60
2022-12-08T14:12:31.389Z,58.60
2022-12-08T14:15:03.838Z,58.60
2022-12-08T14:17:31.154Z,58.60
2022-12-08T14:20:00.485Z,58.10
2022-12-08T14:22:38.270Z,58.60
2022-12-08T14:25:07.029Z,58.60
2022-12-08T14:27:36.871Z,58.60
2022-12-08T14:30:08.396Z,58.60
2022-12-08T14:32:39.217Z,58.70
2022-12-08T14:35:08.823Z,58.70
2022-12-08T14:37:57.237Z,58.80
2022-12-08T14:40:37.722Z,58.30
2022-12-08T14:43:10.432Z,58.80
2022-12-08T14:45:42.805Z,58.80
2022-12-08T14:48:42.573Z,58.80
2022-12-08T14:51:21.461Z,58.80
2022-12-08T14:54:08.080Z,58.80
2022-12-08T14:56:57.226Z,58.80
2022-12-08T14:59:30.461Z,58.80
2022-12-08T15:02:27.075Z,58.90
2022-12-08T15:05:14.712Z,58.90
2022-12-08T15:07:51.034Z,58.90
2022-12-08T15:10:17.694Z,58.90
2022-12-08T15:13:01.459Z,58.90
2022-12-08T15:15:29.438Z,58.90
2022-12-08T15:18:18.651Z,58.90
2022-12-08T15:20:48.059Z,58.90
2022-12-08T15:23:42.505Z,59.00
2022-12-08T15:26:18.120Z,59.00
2022-12-08T15:28:45.014Z,58.50
2022-12-08T15:31:11.735Z,59.10
2022-12-08T15:33:38.429Z,59.00
2022-12-08T15:36:05.206Z,59.10
2022-12-08T15:38:33.994Z,58.50
2022-12-08T15:41:00.731Z,58.50
2022-12-08T15:43:27.874Z,59.00
2022-12-08T15:45:59.475Z,58.90
2022-12-08T15:48:29.035Z,58.90
2022-12-08T15:50:56.268Z,59.00
2022-12-08T15:53:23.202Z,59.00
2022-12-08T15:56:18.936Z,59.00
2022-12-08T15:58:55.301Z,59.00
2022-12-08T16:01:22.845Z,59.10
2022-12-08T16:09:38.981Z,59.10
2022-12-08T16:18:26.639Z,58.80
2022-12-08T16:23:44.672Z,59.20
2022-12-08T16:26:44.206Z,59.50
2022-12-08T16:29:05.989Z,59.40
2022-12-08T16:31:32.847Z,59.40
2022-12-08T16:33:59.541Z,59.60
2022-12-08T16:36:26.200Z,59.70
2022-12-08T16:38:52.768Z,59.70
2022-12-08T16:41:38.156Z,59.50
2022-12-08T16:44:06.406Z,59.20
2022-12-08T16:46:33.038Z,59.00
2022-12-08T16:48:59.985Z,59.30
2022-12-08T16:51:27.532Z,59.30
2022-12-08T16:53:55.273Z,58.90
2022-12-08T16:56:26.226Z,59.30
2022-12-08T16:58:57.218Z,59.30
2022-12-08T17:01:23.990Z,59.00
2022-12-08T17:04:14.399Z,59.10
2022-12-08T17:06:37.290Z,59.10
2022-12-08T17:09:04.134Z,58.90
2022-12-08T17:11:37.508Z,60.20
2022-12-08T17:14:05.950Z,59.20
2022-12-08T17:16:32.605Z,59.30
2022-12-08T17:18:59.296Z,59.20
2022-12-08T17:21:25.878Z,59.50
2022-12-08T17:23:52.655Z,59.50
2022-12-08T17:26:19.339Z,59.30
2022-12-08T17:29:01.920Z,59.10
2022-12-08T17:31:30.812Z,58.40
2022-12-08T17:33:59.741Z,58.90
2022-12-08T17:36:26.409Z,58.90
2022-12-08T17:38:53.079Z,59.00
2022-12-08T17:41:19.726Z,59.00
2022-12-08T17:43:46.364Z,58.90
2022-12-08T17:46:17.857Z,58.80
2022-12-08T17:48:44.584Z,58.90
2022-12-08T17:51:11.491Z,58.80
2022-12-08T17:53:40.543Z,58.90
2022-12-08T17:56:14.224Z,59.00
2022-12-08T17:58:40.842Z,59.00
2022-12-08T18:01:09.670Z,59.10
2022-12-08T18:03:37.424Z,59.10
2022-12-08T18:06:09.590Z,59.10
2022-12-08T18:08:36.788Z,59.20
2022-12-08T18:11:04.622Z,59.30
2022-12-08T18:13:32.012Z,59.20
2022-12-08T18:15:58.661Z,59.40
2022-12-08T18:18:25.334Z,59.50
2022-12-08T18:20:51.992Z,59.60
2022-12-08T18:23:18.734Z,59.50
2022-12-08T18:25:45.636Z,59.70
2022-12-08T18:28:12.426Z,59.70
2022-12-08T18:30:40.098Z,59.70
2022-12-08T18:33:07.536Z,59.70
2022-12-08T18:35:34.774Z,59.70
2022-12-08T18:38:01.425Z,59.80
2022-12-08T18:40:28.537Z,59.30
2022-12-08T18:42:55.253Z,59.90
2022-12-08T18:45:22.745Z,60.20
2022-12-08T18:47:51.034Z,60.10
2022-12-08T18:50:18.195Z,59.70
2022-12-08T18:52:45.517Z,60.20
2022-12-08T18:55:12.380Z,60.40
2022-12-08T18:57:41.603Z,60.50
2022-12-08T19:00:10.717Z,60.40
2022-12-08T19:02:38.528Z,60.40
2022-12-08T19:05:06.649Z,60.70
2022-12-08T19:07:33.299Z,60.60
2022-12-08T19:09:59.892Z,60.80
2022-12-08T19:12:26.714Z,60.90
2022-12-08T19:14:53.815Z,60.80
2022-12-08T19:17:20.988Z,60.90
2022-12-08T19:19:47.619Z,60.90
2022-12-08T19:22:14.427Z,61.00
2022-12-08T19:24:41.104Z,61.00
2022-12-08T19:27:07.750Z,61.10
2022-12-08T19:29:34.794Z,61.20
2022-12-08T19:32:01.512Z,61.20
2022-12-08T19:34:28.284Z,61.30
2022-12-08T19:36:54.920Z,61.30
2022-12-08T19:39:41.930Z,62.00
2022-12-08T19:42:38.152Z,61.30
2022-12-08T19:45:12.789Z,61.30
2022-12-08T19:47:40.269Z,61.30
2022-12-08T19:50:27.228Z,61.40
2022-12-08T19:52:53.932Z,61.40
2022-12-08T19:55:20.661Z,61.40
2022-12-08T19:57:47.330Z,61.40
2022-12-08T20:00:14.500Z,61.50
2022-12-08T20:02:41.298Z,61.60
2022-12-08T20:05:09.245Z,61.60
2022-12-08T20:07:36.248Z,61.80
2022-12-08T20:10:08.422Z,61.80
2022-12-08T20:12:35.262Z,61.80
2022-12-08T20:15:01.870Z,61.90
2022-12-08T20:17:28.442Z,61.90
2022-12-08T20:19:55.038Z,62.10
2022-12-08T20:22:21.656Z,62.50
2022-12-08T20:24:56.452Z,62.40
2022-12-08T20:27:26.259Z,62.10
2022-12-08T20:29:53.085Z,62.10
2022-12-08T20:32:19.702Z,62.40
2022-12-08T20:34:46.314Z,62.10
2022-12-08T20:37:13.020Z,62.00
2022-12-08T20:39:39.788Z,61.60
2022-12-08T20:42:06.607Z,61.60
2022-12-08T20:44:33.250Z,61.50
2022-12-08T20:46:59.872Z,61.60
2022-12-08T20:49:32.789Z,61.60
2022-12-08T20:52:01.111Z,61.60
2022-12-08T20:54:28.347Z,61.60
2022-12-08T20:56:55.065Z,61.70
2022-12-08T20:59:21.708Z,61.60
2022-12-08T21:01:48.967Z,61.60
2022-12-08T21:04:15.809Z,60.40
2022-12-08T21:06:42.791Z,60.20
2022-12-08T21:09:09.736Z,60.20
2022-12-08T21:11:36.558Z,60.00
2022-12-08T21:14:04.225Z,59.80
2022-12-08T21:16:31.045Z,59.80
2022-12-08T21:18:57.914Z,59.80
2022-12-08T21:21:24.878Z,59.70
2022-12-08T21:23:51.659Z,59.60
2022-12-08T21:26:21.105Z,59.50
2022-12-08T21:28:48.236Z,59.50
2022-12-08T21:31:18.518Z,59.50
2022-12-08T21:33:45.507Z,59.40
2022-12-08T21:36:14.950Z,59.30
2022-12-08T21:38:42.749Z,59.30
2022-12-08T21:41:13.253Z,59.20
2022-12-08T21:43:40.164Z,59.10
2022-12-08T21:46:06.946Z,59.20
2022-12-08T21:48:33.708Z,59.10
2022-12-08T21:51:05.314Z,59.00
2022-12-08T21:53:32.138Z,59.00
2022-12-08T21:55:58.837Z,59.00
2022-12-08T21:58:26.407Z,58.90
2022-12-08T22:00:53.535Z,58.90
2022-12-08T22:03:20.389Z,58.90
2022-12-08T22:05:47.410Z,59.00
2022-12-08T22:08:14.344Z,58.90
2022-12-08T22:10:46.312Z,58.80
2022-12-08T22:13:12.924Z,58.80
2022-12-08T22:15:39.637Z,58.70
2022-12-08T22:18:06.481Z,58.70
2022-12-08T22:20:33.164Z,58.70
2022-12-08T22:22:59.763Z,58.60
2022-12-08T22:25:26.475Z,58.60
2022-12-08T22:27:53.166Z,58.60
2022-12-08T22:30:19.903Z,58.20
2022-12-08T22:32:46.716Z,58.60
2022-12-08T22:35:13.625Z,58.60
2022-12-08T22:37:40.255Z,58.60
2022-12-08T22:40:07.866Z,58.50
2022-12-08T22:42:34.686Z,58.60
2022-12-08T22:45:01.310Z,58.50
2022-12-08T22:47:28.013Z,58.40
2022-12-08T22:49:54.631Z,58.00
2022-12-08T22:52:21.285Z,58.50
2022-12-08T22:54:47.922Z,58.40
2022-12-08T22:57:14.515Z,58.40
2022-12-08T22:59:41.415Z,58.40
2022-12-08T23:02:08.220Z,58.40
2022-12-08T23:04:35.715Z,58.40
2022-12-08T23:07:02.721Z,58.40
2022-12-08T23:09:29.454Z,58.30
2022-12-08T23:11:56.329Z,58.30
2022-12-08T23:14:23.097Z,58.20
2022-12-08T23:16:49.813Z,58.20
2022-12-08T23:19:16.586Z,57.70
2022-12-08T23:21:43.361Z,58.20
2022-12-08T23:24:09.953Z,58.20
2022-12-08T23:26:36.679Z,58.20
2022-12-08T23:29:04.491Z,58.20
2022-12-08T23:31:31.586Z,58.10
2022-12-08T23:33:58.705Z,58.20
2022-12-08T23:36:28.407Z,58.10
2022-12-08T23:38:55.388Z,58.10
2022-12-08T23:41:22.242Z,58.10
2022-12-08T23:43:50.965Z,58.10
2022-12-08T23:46:20.425Z,58.10
2022-12-08T23:48:47.608Z,58.00
2022-12-08T23:51:14.747Z,57.50
2022-12-08T23:53:41.639Z,58.00
2022-12-08T23:56:11.769Z,57.90
2022-12-08T23:58:39.014Z,57.90
